createdAt,value
2018-05-06T00:02:52.785Z,81.10
2018-05-06T00:06:06.020Z,81.10
2018-05-06T00:09:18.471Z,81.10
2018-05-06T00:12:30.950Z,81.40
2018-05-06T00:15:44.170Z,81.70
2018-05-06T00:18:56.720Z,81.70
2018-05-06T00:22:09.953Z,82.00
2018-05-06T00:25:22.399Z,81.90
2018-05-06T00:28:35.665Z,82.30
2018-05-06T00:31:48.113Z,82.30
2018-05-06T00:35:00.578Z,82.50
2018-05-06T00:38:13.021Z,82.30
2018-05-06T00:41:25.676Z,82.50
2018-05-06T00:44:38.890Z,82.70
2018-05-06T00:47:51.340Z,82.70
2018-05-06T00:51:03.859Z,82.80
2018-05-06T00:54:28.133Z,83.00
2018-05-06T00:57:40.586Z,83.10
2018-05-06T01:00:53.047Z,83.10
2018-05-06T01:04:05.513Z,83.20
2018-05-06T01:07:17.986Z,83.60
2018-05-06T01:10:30.465Z,83.60
2018-05-06T01:13:42.913Z,84.40
2018-05-06T01:16:55.413Z,83.70
2018-05-06T01:20:07.889Z,83.70
2018-05-06T01:23:20.333Z,83.80
2018-05-06T01:26:32.808Z,83.90
2018-05-06T01:29:45.245Z,84.00
2018-05-06T01:32:57.852Z,84.00
2018-05-06T01:36:10.331Z,84.30
2018-05-06T01:39:22.789Z,84.40
2018-05-06T01:42:35.277Z,84.40
2018-05-06T01:45:47.730Z,84.60
2018-05-06T01:49:00.223Z,84.40
2018-05-06T01:52:13.441Z,84.60
2018-05-06T01:55:26.816Z,84.70
2018-05-06T01:58:39.294Z,84.70
2018-05-06T02:01:51.745Z,84.60
2018-05-06T02:05:04.225Z,84.70
2018-05-06T02:08:16.672Z,85.60
2018-05-06T02:11:29.169Z,85.00
2018-05-06T02:14:41.634Z,85.00
2018-05-06T02:17:54.105Z,85.10
2018-05-06T02:21:07.353Z,85.00
2018-05-06T02:24:20.556Z,85.10
2018-05-06T02:27:33.045Z,85.00
2018-05-06T02:30:45.502Z,85.20
2018-05-06T02:33:57.994Z,85.20
2018-05-06T02:37:11.246Z,85.40
2018-05-06T02:40:24.477Z,85.30
2018-05-06T02:43:36.948Z,85.30
2018-05-06T02:46:49.397Z,85.20
2018-05-06T02:50:01.874Z,85.10
2018-05-06T02:53:15.089Z,85.20
2018-05-06T02:56:27.614Z,85.10
2018-05-06T02:59:40.061Z,85.20
2018-05-06T03:02:52.517Z,85.30
2018-05-06T03:06:05.789Z,85.10
2018-05-06T03:09:18.241Z,85.10
2018-05-06T03:12:30.883Z,85.10
2018-05-06T03:15:44.122Z,85.20
2018-05-06T03:18:56.639Z,85.20
2018-05-06T03:22:09.105Z,85.10
2018-05-06T03:25:21.548Z,85.20
2018-05-06T03:28:34.014Z,85.10
2018-05-06T03:31:46.463Z,85.10
2018-05-06T03:34:58.957Z,85.90
2018-05-06T03:38:11.418Z,85.30
2018-05-06T03:41:23.864Z,85.10
2018-05-06T03:44:37.139Z,84.90
2018-05-06T03:47:49.590Z,84.80
2018-05-06T03:51:02.070Z,84.40
2018-05-06T03:54:14.509Z,84.50
2018-05-06T03:57:38.725Z,84.40
2018-05-06T04:00:51.189Z,84.20
2018-05-06T04:04:03.711Z,83.80
2018-05-06T04:07:16.157Z,84.60
2018-05-06T04:10:29.404Z,83.60
2018-05-06T04:13:42.617Z,83.30
2018-05-06T04:16:55.084Z,83.20
2018-05-06T04:20:08.294Z,83.10
2018-05-06T04:23:20.757Z,83.00
2018-05-06T04:26:33.229Z,82.70
2018-05-06T04:29:45.665Z,82.70
2018-05-06T04:32:59.020Z,82.40
2018-05-06T04:36:11.465Z,82.40
2018-05-06T04:39:23.927Z,81.60
2018-05-06T04:42:36.391Z,81.60
2018-05-06T04:45:48.846Z,81.20
2018-05-06T04:49:01.324Z,81.40
2018-05-06T04:52:14.542Z,80.90
2018-05-06T04:55:27.043Z,80.90
2018-05-06T04:58:39.493Z,80.10
2018-05-06T05:01:51.942Z,79.80
2018-05-06T05:05:04.415Z,79.40
2018-05-06T05:08:16.864Z,78.80
2018-05-06T05:11:29.427Z,78.60
2018-05-06T05:14:42.651Z,76.90
2018-05-06T05:17:55.161Z,76.90
2018-05-06T05:21:07.660Z,76.50
2018-05-06T05:24:20.113Z,74.80
2018-05-06T05:27:32.644Z,73.30
2018-05-06T05:30:45.146Z,71.50
2018-05-06T05:33:57.665Z,69.60
2018-05-06T05:37:10.864Z,66.70
2018-05-06T05:40:23.293Z,66.40
2018-05-06T05:43:35.788Z,64.50
2018-05-06T05:46:48.257Z,63.30
2018-05-06T05:50:01.001Z,62.40
2018-05-06T05:53:13.439Z,62.30
2018-05-06T05:56:26.314Z,61.20
2018-05-06T05:59:38.889Z,60.90
2018-05-06T06:02:51.332Z,60.30
2018-05-06T06:06:03.810Z,59.50
2018-05-06T06:09:16.238Z,58.00
2018-05-06T06:12:29.956Z,56.00
2018-05-06T06:15:43.122Z,56.00
2018-05-06T06:18:55.936Z,55.70
2018-05-06T06:22:09.742Z,54.80
2018-05-06T06:25:22.416Z,53.10
2018-05-06T06:28:35.713Z,52.90
2018-05-06T06:31:49.151Z,51.60
2018-05-06T06:35:01.901Z,51.50
2018-05-06T06:38:14.384Z,51.70
2018-05-06T06:41:27.293Z,50.30
2018-05-06T06:44:39.817Z,50.60
2018-05-06T06:47:53.043Z,50.20
2018-05-06T06:51:05.578Z,49.60
2018-05-06T06:54:18.062Z,49.40
2018-05-06T06:57:32.331Z,49.50
2018-05-06T07:00:44.922Z,48.50
2018-05-06T07:03:57.435Z,48.30
2018-05-06T07:07:09.898Z,48.00
2018-05-06T07:10:23.111Z,46.00
2018-05-06T07:13:35.633Z,45.90
2018-05-06T07:16:48.106Z,46.50
2018-05-06T07:20:01.785Z,43.80
2018-05-06T07:23:14.228Z,43.80
2018-05-06T07:26:26.736Z,43.90
2018-05-06T07:29:25.003Z,42.90
2018-05-06T07:32:22.453Z,42.80
2018-05-06T07:35:19.908Z,43.30
2018-05-06T07:38:17.355Z,42.60
2018-05-06T07:41:14.802Z,41.40
2018-05-06T07:44:12.270Z,40.80
2018-05-06T07:47:09.730Z,40.40
2018-05-06T07:50:08.012Z,40.20
2018-05-06T07:53:06.318Z,40.60
2018-05-06T07:56:03.838Z,40.60
2018-05-06T07:59:01.407Z,39.40
2018-05-06T08:01:59.074Z,39.10
2018-05-06T08:04:57.797Z,38.90
2018-05-06T08:07:55.327Z,38.70
2018-05-06T08:10:54.097Z,39.50
2018-05-06T08:13:52.273Z,39.40
2018-05-06T08:16:49.713Z,37.40
2018-05-06T08:19:47.157Z,37.40
2018-05-06T08:22:44.598Z,36.70
2018-05-06T08:25:42.084Z,36.40
2018-05-06T08:28:39.543Z,37.00
2018-05-06T08:31:38.550Z,37.10
2018-05-06T08:34:36.862Z,38.00
2018-05-06T08:37:34.727Z,37.90
2018-05-06T08:40:32.407Z,36.90
2018-05-06T08:43:30.742Z,37.50
2018-05-06T08:46:28.554Z,37.90
2018-05-06T08:49:26.395Z,37.50
2018-05-06T08:52:23.925Z,37.20
2018-05-06T08:55:21.358Z,36.50
2018-05-06T08:58:18.805Z,36.50
2018-05-06T09:01:17.022Z,36.00
2018-05-06T09:04:14.473Z,35.50
2018-05-06T09:07:11.905Z,36.50
2018-05-06T09:10:09.505Z,36.50
2018-05-06T09:13:07.805Z,36.60
2018-05-06T09:16:05.991Z,36.50
2018-05-06T09:19:03.462Z,35.20
2018-05-06T09:22:01.327Z,34.90
2018-05-06T09:24:59.066Z,35.40
2018-05-06T09:27:58.012Z,36.50
2018-05-06T09:30:56.493Z,35.30
2018-05-06T09:33:54.020Z,35.20
2018-05-06T09:36:51.466Z,33.90
2018-05-06T09:39:48.909Z,34.50
2018-05-06T09:42:46.769Z,34.30
2018-05-06T09:45:44.225Z,33.60
2018-05-06T09:48:41.914Z,35.40
2018-05-06T09:51:39.535Z,34.00
2018-05-06T09:54:37.048Z,32.80
2018-05-06T09:57:34.577Z,33.40
2018-05-06T10:00:32.477Z,34.80
2018-05-06T10:03:30.699Z,33.30
2018-05-06T10:06:28.542Z,31.70
2018-05-06T10:09:27.021Z,32.90
2018-05-06T10:12:24.462Z,31.70
2018-05-06T10:15:22.682Z,32.30
2018-05-06T10:18:20.122Z,32.30
2018-05-06T10:21:18.337Z,32.20
2018-05-06T10:24:15.781Z,32.20
2018-05-06T10:27:13.240Z,32.70
2018-05-06T10:30:10.692Z,32.70
2018-05-06T10:33:08.159Z,31.80
2018-05-06T10:36:05.700Z,30.40
2018-05-06T10:39:04.023Z,32.30
2018-05-06T10:42:06.836Z,32.30
2018-05-06T10:45:05.189Z,31.00
2018-05-06T10:48:02.943Z,31.00
2018-05-06T10:51:01.304Z,30.60
2018-05-06T10:53:59.662Z,31.20
2018-05-06T10:56:57.483Z,31.10
2018-05-06T10:59:54.929Z,29.70
2018-05-06T11:02:52.369Z,30.10
2018-05-06T11:05:51.099Z,29.30
2018-05-06T11:08:51.266Z,30.30
2018-05-06T11:11:51.905Z,31.50
2018-05-06T11:14:50.034Z,29.90
2018-05-06T11:17:47.876Z,29.10
2018-05-06T11:20:45.261Z,29.90
2018-05-06T11:23:42.710Z,29.40
2018-05-06T11:26:40.164Z,31.60
2018-05-06T11:29:37.737Z,28.50
2018-05-06T11:32:35.336Z,29.40
2018-05-06T11:35:32.967Z,29.30
2018-05-06T11:38:31.429Z,29.50
2018-05-06T11:41:29.862Z,30.00
2018-05-06T11:44:27.625Z,28.80
2018-05-06T11:47:25.290Z,29.80
2018-05-06T11:50:22.729Z,29.10
2018-05-06T11:53:20.174Z,28.50
2018-05-06T11:56:17.668Z,30.10
2018-05-06T11:59:15.067Z,28.00
2018-05-06T12:02:12.624Z,28.60
2018-05-06T12:05:10.833Z,28.90
2018-05-06T12:08:08.497Z,28.90
2018-05-06T12:11:06.053Z,28.20
2018-05-06T12:14:03.619Z,28.70
2018-05-06T12:17:01.401Z,28.30
2018-05-06T12:19:59.226Z,28.90
2018-05-06T12:22:56.924Z,29.90
2018-05-06T12:25:54.525Z,30.40
2018-05-06T12:28:51.979Z,29.20
2018-05-06T12:31:49.430Z,28.60
2018-05-06T12:34:46.871Z,28.00
2018-05-06T12:37:44.313Z,30.00
2018-05-06T12:40:41.753Z,29.50
2018-05-06T12:43:39.306Z,28.80
2018-05-06T12:46:36.834Z,29.30
2018-05-06T12:49:35.291Z,28.70
2018-05-06T12:52:32.947Z,28.70
2018-05-06T12:55:31.619Z,29.20
2018-05-06T12:58:29.898Z,29.70
2018-05-06T13:01:30.848Z,29.80
2018-05-06T13:04:29.313Z,29.80
2018-05-06T13:07:28.077Z,30.30
2018-05-06T13:10:25.656Z,30.20
2018-05-06T13:13:23.177Z,30.00
2018-05-06T13:16:20.633Z,29.60
2018-05-06T13:19:18.148Z,30.20
2018-05-06T13:22:15.523Z,29.70
2018-05-06T13:25:13.738Z,31.00
2018-05-06T13:28:11.180Z,31.00
2018-05-06T13:31:08.790Z,32.10
2018-05-06T13:34:06.479Z,31.60
2018-05-06T13:37:04.102Z,31.00
2018-05-06T13:40:01.863Z,31.00
2018-05-06T13:42:59.758Z,30.90
2018-05-06T13:45:58.473Z,31.40
2018-05-06T13:48:56.064Z,31.40
2018-05-06T13:51:53.523Z,32.10
2018-05-06T13:54:51.731Z,33.10
2018-05-06T13:57:49.173Z,33.10
2018-05-06T14:00:46.614Z,32.50
2018-05-06T14:03:44.067Z,32.10
2018-05-06T14:06:41.520Z,32.30
2018-05-06T14:09:39.118Z,31.80
2018-05-06T14:12:36.631Z,31.80
2018-05-06T14:15:34.124Z,32.10
2018-05-06T14:18:31.710Z,30.80
2018-05-06T14:21:32.964Z,32.00
2018-05-06T14:24:30.786Z,31.90
2018-05-06T14:27:29.522Z,32.50
2018-05-06T14:30:27.401Z,32.40
2018-05-06T14:33:24.866Z,32.50
2018-05-06T14:36:23.086Z,32.20
2018-05-06T14:39:20.524Z,32.10
2018-05-06T14:42:17.949Z,32.60
2018-05-06T14:45:16.149Z,32.90
2018-05-06T14:48:15.079Z,32.80
2018-05-06T14:51:12.670Z,30.90
2018-05-06T14:54:11.173Z,30.90
2018-05-06T14:57:09.201Z,31.80
2018-05-06T15:00:07.054Z,31.10
2018-05-06T15:03:05.407Z,31.50
2018-05-06T15:06:03.158Z,31.40
2018-05-06T15:09:00.891Z,30.30
2018-05-06T15:11:58.889Z,30.40
2018-05-06T15:14:57.433Z,29.60
2018-05-06T15:17:55.959Z,31.60
2018-05-06T15:20:53.742Z,30.90
2018-05-06T15:23:51.206Z,29.60
2018-05-06T15:26:49.094Z,29.00
2018-05-06T15:29:46.635Z,29.60
2018-05-06T15:32:44.028Z,29.30
2018-05-06T15:35:42.247Z,28.80
2018-05-06T15:38:39.754Z,28.70
2018-05-06T15:41:37.237Z,29.00
2018-05-06T15:44:35.050Z,28.90
2018-05-06T15:47:32.847Z,29.40
2018-05-06T15:50:31.362Z,28.70
2018-05-06T15:53:29.244Z,29.70
2018-05-06T15:56:27.799Z,29.50
2018-05-06T15:59:25.684Z,29.60
2018-05-06T16:06:07.470Z,28.80
2018-05-06T16:09:07.613Z,28.90
2018-05-06T16:12:07.037Z,29.50
2018-05-06T16:15:05.966Z,29.40
2018-05-06T16:18:03.553Z,29.50
2018-05-06T16:21:02.338Z,29.70
2018-05-06T16:24:00.737Z,29.90
2018-05-06T16:26:58.623Z,29.80
2018-05-06T16:29:56.174Z,30.10
2018-05-06T16:32:54.422Z,29.90
2018-05-06T16:35:52.762Z,29.90
2018-05-06T16:38:50.209Z,29.90
2018-05-06T16:41:47.670Z,29.70
2018-05-06T16:44:45.115Z,29.90
2018-05-06T16:47:42.594Z,30.10
2018-05-06T16:50:40.048Z,31.40
2018-05-06T16:53:37.497Z,31.00
2018-05-06T16:56:35.021Z,30.90
2018-05-06T16:59:33.347Z,32.10
2018-05-06T17:02:31.287Z,31.30
2018-05-06T17:05:22.753Z,31.80
2018-05-06T17:08:14.233Z,31.40
2018-05-06T17:11:05.996Z,32.10
2018-05-06T17:13:57.676Z,32.60
2018-05-06T17:16:49.138Z,33.00
2018-05-06T17:19:40.653Z,32.70
2018-05-06T17:22:32.394Z,32.00
2018-05-06T17:25:23.890Z,32.10
2018-05-06T17:28:16.091Z,32.50
2018-05-06T17:31:07.652Z,32.40
2018-05-06T17:34:00.101Z,33.30
2018-05-06T17:36:52.453Z,33.30
2018-05-06T17:39:43.920Z,33.20
2018-05-06T17:42:35.508Z,33.80
2018-05-06T17:45:27.183Z,34.10
2018-05-06T17:48:19.755Z,34.30
2018-05-06T17:51:11.383Z,34.30
2018-05-06T17:54:02.889Z,34.30
2018-05-06T17:56:54.417Z,34.10
2018-05-06T17:59:46.252Z,34.00
2018-05-06T18:02:37.770Z,34.70
2018-05-06T18:05:30.489Z,35.00
2018-05-06T18:08:22.752Z,35.30
2018-05-06T18:11:14.231Z,35.20
2018-05-06T18:14:06.614Z,35.60
2018-05-06T18:16:58.428Z,35.50
2018-05-06T18:19:50.700Z,36.30
2018-05-06T18:22:42.169Z,36.20
2018-05-06T18:25:33.639Z,36.80
2018-05-06T18:28:25.169Z,36.90
2018-05-06T18:31:17.401Z,37.80
2018-05-06T18:34:08.929Z,37.80
2018-05-06T18:37:00.667Z,37.80
2018-05-06T18:39:52.229Z,37.80
2018-05-06T18:42:43.692Z,38.40
2018-05-06T18:45:36.050Z,38.70
2018-05-06T18:48:28.889Z,38.70
2018-05-06T18:51:21.390Z,40.10
2018-05-06T18:54:13.594Z,40.70
2018-05-06T18:57:05.327Z,40.70
2018-05-06T18:59:59.343Z,41.20
2018-05-06T19:02:51.469Z,41.80
2018-05-06T19:05:43.194Z,42.40
2018-05-06T19:08:36.403Z,42.70
2018-05-06T19:11:32.857Z,43.10
2018-05-06T19:14:24.461Z,44.00
2018-05-06T19:17:15.913Z,43.70
2018-05-06T19:20:07.413Z,44.00
2018-05-06T19:22:59.982Z,45.00
2018-05-06T19:25:51.573Z,44.90
2018-05-06T19:28:43.144Z,45.00
2018-05-06T19:31:35.737Z,45.40
2018-05-06T19:34:27.712Z,45.30
2018-05-06T19:37:19.452Z,45.70
2018-05-06T19:40:10.949Z,45.70
2018-05-06T19:43:02.464Z,45.80
2018-05-06T19:45:53.945Z,46.20
2018-05-06T19:48:45.476Z,46.40
2018-05-06T19:51:36.928Z,46.60
2018-05-06T19:54:29.535Z,46.70
2018-05-06T19:57:21.757Z,46.90
2018-05-06T20:00:13.206Z,46.90
2018-05-06T20:03:04.689Z,46.50
2018-05-06T20:05:56.175Z,46.40
2018-05-06T20:08:48.401Z,46.50
2018-05-06T20:11:39.857Z,46.40
2018-05-06T20:14:31.669Z,46.80
2018-05-06T20:17:23.152Z,47.20
2018-05-06T20:20:14.599Z,47.50
2018-05-06T20:23:06.055Z,47.80
2018-05-06T20:25:57.522Z,48.90
2018-05-06T20:28:48.997Z,48.10
2018-05-06T20:31:40.442Z,48.10
2018-05-06T20:34:32.764Z,48.20
2018-05-06T20:40:26.569Z,48.10
2018-05-06T20:43:18.081Z,48.20
2018-05-06T20:46:09.597Z,48.40
2018-05-06T20:49:01.253Z,48.40
2018-05-06T20:51:52.911Z,48.30
2018-05-06T20:54:44.362Z,48.40
2018-05-06T20:57:35.835Z,48.40
2018-05-06T21:00:27.728Z,48.50
2018-05-06T21:03:19.227Z,48.50
2018-05-06T21:06:10.669Z,48.20
2018-05-06T21:09:02.925Z,48.30
2018-05-06T21:11:54.398Z,48.20
2018-05-06T21:14:45.829Z,48.30
2018-05-06T21:17:37.274Z,48.50
2018-05-06T21:20:28.877Z,48.70
2018-05-06T21:23:20.341Z,48.70
2018-05-06T21:26:11.797Z,48.80
2018-05-06T21:29:03.381Z,48.90
2018-05-06T21:31:55.727Z,49.00
2018-05-06T21:34:47.153Z,49.00
2018-05-06T21:37:38.658Z,49.20
2018-05-06T21:40:30.258Z,49.50
2018-05-06T21:43:21.791Z,49.40
2018-05-06T21:46:13.189Z,49.50
2018-05-06T21:49:04.681Z,49.70
2018-05-06T21:51:56.168Z,49.80
2018-05-06T21:54:47.654Z,49.90
2018-05-06T21:57:39.139Z,49.90
2018-05-06T22:00:30.905Z,50.30
2018-05-06T22:03:22.377Z,50.10
2018-05-06T22:06:13.832Z,50.20
2018-05-06T22:09:05.305Z,50.10
2018-05-06T22:11:57.624Z,50.10
2018-05-06T22:14:49.092Z,50.10
2018-05-06T22:17:40.529Z,50.20
2018-05-06T22:20:32.769Z,50.50
2018-05-06T22:23:24.253Z,50.00
2018-05-06T22:26:15.718Z,49.90
2018-05-06T22:29:07.217Z,50.00
2018-05-06T22:31:59.630Z,50.50
2018-05-06T22:34:51.066Z,50.50
2018-05-06T22:37:42.530Z,50.40
2018-05-06T22:40:34.777Z,50.40
2018-05-06T22:43:26.237Z,50.40
2018-05-06T22:46:17.706Z,50.50
2018-05-06T22:49:09.193Z,50.70
2018-05-06T22:52:01.516Z,51.20
2018-05-06T22:54:53.751Z,51.30
2018-05-06T22:57:45.189Z,51.30
2018-05-06T23:00:36.664Z,51.30
2018-05-06T23:03:28.357Z,51.50
2018-05-06T23:06:19.793Z,51.30
2018-05-06T23:09:11.234Z,51.40
2018-05-06T23:12:02.766Z,51.40
2018-05-06T23:14:54.221Z,51.50
2018-05-06T23:17:45.665Z,51.50
2018-05-06T23:20:37.162Z,51.50
2018-05-06T23:23:28.649Z,52.20
2018-05-06T23:26:20.102Z,51.50
2018-05-06T23:29:12.328Z,51.80
2018-05-06T23:32:03.794Z,51.80
2018-05-06T23:34:56.005Z,52.00
2018-05-06T23:37:47.462Z,52.00
2018-05-06T23:40:38.996Z,52.00
2018-05-06T23:43:30.505Z,52.00
2018-05-06T23:46:21.990Z,52.10
2018-05-06T23:49:14.186Z,52.40
2018-05-06T23:52:05.667Z,52.40
2018-05-06T23:54:57.626Z,52.40
2018-05-06T23:57:49.092Z,52.60
